sensor_id;sensor_type;location;lat;lon;timestamp;P1;durP1;ratioP1;P2;durP2;ratioP2
10467;SDS011;5281;48.878;9.394;2024-03-22T00:02:00;7.73;;;4.80;;
10467;SDS011;5281;48.878;9.394;2024-03-22T00:04:28;7.37;;;5.30;;
10467;SDS011;5281;48.878;9.394;2024-03-22T00:06:54;7.03;;;5.37;;
10467;SDS011;5281;48.878;9.394;2024-03-22T00:09:21;7.97;;;5.40;;
10467;SDS011;5281;48.878;9.394;2024-03-22T00:11:46;9.80;;;5.27;;
10467;SDS011;5281;48.878;9.394;2024-03-22T00:14:13;9.43;;;5.20;;
10467;SDS011;5281;48.878;9.394;2024-03-22T00:16:39;10.33;;;5.03;;
10467;SDS011;5281;48.878;9.394;2024-03-22T00:19:05;6.27;;;5.10;;
10467;SDS011;5281;48.878;9.394;2024-03-22T00:21:32;8.60;;;5.13;;
10467;SDS011;5281;48.878;9.394;2024-03-22T00:23:59;8.90;;;5.20;;
10467;SDS011;5281;48.878;9.394;2024-03-22T00:26:26;8.47;;;4.97;;
10467;SDS011;5281;48.878;9.394;2024-03-22T00:28:53;6.10;;;5.03;;
10467;SDS011;5281;48.878;9.394;2024-03-22T00:31:18;7.27;;;5.03;;
10467;SDS011;5281;48.878;9.394;2024-03-22T00:33:45;7.67;;;4.80;;
10467;SDS011;5281;48.878;9.394;2024-03-22T00:36:11;7.03;;;4.70;;
10467;SDS011;5281;48.878;9.394;2024-03-22T00:38:39;6.30;;;4.93;;
10467;SDS011;5281;48.878;9.394;2024-03-22T00:41:04;7.17;;;4.73;;
10467;SDS011;5281;48.878;9.394;2024-03-22T00:43:31;7.07;;;4.67;;
10467;SDS011;5281;48.878;9.394;2024-03-22T00:45:57;5.77;;;4.70;;
10467;SDS011;5281;48.878;9.394;2024-03-22T00:48:25;6.10;;;4.93;;
10467;SDS011;5281;48.878;9.394;2024-03-22T00:50:51;7.93;;;5.17;;
10467;SDS011;5281;48.878;9.394;2024-03-22T00:53:17;7.90;;;5.47;;
10467;SDS011;5281;48.878;9.394;2024-03-22T00:55:44;8.83;;;4.90;;
10467;SDS011;5281;48.878;9.394;2024-03-22T00:58:15;5.57;;;4.73;;
10467;SDS011;5281;48.878;9.394;2024-03-22T01:00:42;8.50;;;5.13;;
10467;SDS011;5281;48.878;9.394;2024-03-22T01:03:09;7.33;;;5.03;;
10467;SDS011;5281;48.878;9.394;2024-03-22T01:05:35;7.20;;;5.10;;
10467;SDS011;5281;48.878;9.394;2024-03-22T01:08:02;6.43;;;5.20;;
10467;SDS011;5281;48.878;9.394;2024-03-22T01:10:28;6.67;;;5.07;;
10467;SDS011;5281;48.878;9.394;2024-03-22T01:12:56;7.63;;;4.90;;
10467;SDS011;5281;48.878;9.394;2024-03-22T01:15:21;5.93;;;4.80;;
10467;SDS011;5281;48.878;9.394;2024-03-22T01:17:48;6.07;;;5.10;;
10467;SDS011;5281;48.878;9.394;2024-03-22T01:20:14;8.67;;;4.97;;
10467;SDS011;5281;48.878;9.394;2024-03-22T01:22:41;8.30;;;5.23;;
10467;SDS011;5281;48.878;9.394;2024-03-22T01:25:07;5.37;;;4.33;;
10467;SDS011;5281;48.878;9.394;2024-03-22T01:27:34;6.20;;;4.63;;
10467;SDS011;5281;48.878;9.394;2024-03-22T01:30:02;6.13;;;5.20;;
10467;SDS011;5281;48.878;9.394;2024-03-22T01:32:29;6.17;;;5.03;;
10467;SDS011;5281;48.878;9.394;2024-03-22T01:34:55;6.40;;;4.83;;
10467;SDS011;5281;48.878;9.394;2024-03-22T01:37:23;7.57;;;5.10;;
10467;SDS011;5281;48.878;9.394;2024-03-22T01:39:48;6.33;;;5.20;;
10467;SDS011;5281;48.878;9.394;2024-03-22T01:42:15;7.77;;;5.30;;
10467;SDS011;5281;48.878;9.394;2024-03-22T01:44:41;5.77;;;5.00;;
10467;SDS011;5281;48.878;9.394;2024-03-22T01:47:09;9.07;;;5.27;;
10467;SDS011;5281;48.878;9.394;2024-03-22T01:49:35;6.17;;;4.83;;
10467;SDS011;5281;48.878;9.394;2024-03-22T01:52:02;5.80;;;4.57;;
10467;SDS011;5281;48.878;9.394;2024-03-22T01:54:28;6.93;;;4.90;;
10467;SDS011;5281;48.878;9.394;2024-03-22T01:56:55;8.17;;;4.67;;
10467;SDS011;5281;48.878;9.394;2024-03-22T01:59:21;5.53;;;4.70;;
10467;SDS011;5281;48.878;9.394;2024-03-22T02:01:48;8.17;;;4.80;;
10467;SDS011;5281;48.878;9.394;2024-03-22T02:04:15;6.60;;;4.70;;
10467;SDS011;5281;48.878;9.394;2024-03-22T02:06:42;6.07;;;4.33;;
10467;SDS011;5281;48.878;9.394;2024-03-22T02:09:07;6.07;;;4.40;;
10467;SDS011;5281;48.878;9.394;2024-03-22T02:11:34;7.80;;;5.03;;
10467;SDS011;5281;48.878;9.394;2024-03-22T02:14:02;5.43;;;4.77;;
10467;SDS011;5281;48.878;9.394;2024-03-22T02:16:29;6.50;;;4.50;;
10467;SDS011;5281;48.878;9.394;2024-03-22T02:18:55;8.30;;;4.80;;
10467;SDS011;5281;48.878;9.394;2024-03-22T02:21:23;6.97;;;4.50;;
10467;SDS011;5281;48.878;9.394;2024-03-22T02:23:50;5.03;;;4.53;;
10467;SDS011;5281;48.878;9.394;2024-03-22T02:26:16;7.00;;;4.70;;
10467;SDS011;5281;48.878;9.394;2024-03-22T02:28:42;6.57;;;5.03;;
10467;SDS011;5281;48.878;9.394;2024-03-22T02:31:09;5.70;;;4.70;;
10467;SDS011;5281;48.878;9.394;2024-03-22T02:33:34;6.13;;;4.87;;
10467;SDS011;5281;48.878;9.394;2024-03-22T02:36:01;6.80;;;4.77;;
10467;SDS011;5281;48.878;9.394;2024-03-22T02:38:27;7.20;;;5.43;;
10467;SDS011;5281;48.878;9.394;2024-03-22T02:40:55;6.27;;;4.87;;
10467;SDS011;5281;48.878;9.394;2024-03-22T02:43:23;8.13;;;5.67;;
10467;SDS011;5281;48.878;9.394;2024-03-22T02:45:50;7.07;;;5.63;;
10467;SDS011;5281;48.878;9.394;2024-03-22T02:48:16;8.20;;;5.83;;
10467;SDS011;5281;48.878;9.394;2024-03-22T02:50:43;8.30;;;6.20;;
10467;SDS011;5281;48.878;9.394;2024-03-22T02:53:08;7.53;;;5.30;;
10467;SDS011;5281;48.878;9.394;2024-03-22T02:55:36;9.33;;;5.60;;
10467;SDS011;5281;48.878;9.394;2024-03-22T02:58:04;7.33;;;5.87;;
10467;SDS011;5281;48.878;9.394;2024-03-22T03:00:30;9.93;;;5.73;;
10467;SDS011;5281;48.878;9.394;2024-03-22T03:02:56;7.67;;;6.07;;
10467;SDS011;5281;48.878;9.394;2024-03-22T03:05:23;7.83;;;5.90;;
10467;SDS011;5281;48.878;9.394;2024-03-22T03:07:48;6.60;;;5.63;;
10467;SDS011;5281;48.878;9.394;2024-03-22T03:10:15;13.77;;;6.67;;
10467;SDS011;5281;48.878;9.394;2024-03-22T03:12:41;10.47;;;7.37;;
10467;SDS011;5281;48.878;9.394;2024-03-22T03:15:09;7.50;;;6.17;;
10467;SDS011;5281;48.878;9.394;2024-03-22T03:17:35;8.30;;;6.70;;
10467;SDS011;5281;48.878;9.394;2024-03-22T03:20:02;8.20;;;6.33;;
10467;SDS011;5281;48.878;9.394;2024-03-22T03:22:32;7.80;;;5.83;;
10467;SDS011;5281;48.878;9.394;2024-03-22T03:24:59;11.70;;;6.60;;
10467;SDS011;5281;48.878;9.394;2024-03-22T03:27:25;7.80;;;6.23;;
10467;SDS011;5281;48.878;9.394;2024-03-22T03:29:51;7.00;;;6.27;;
10467;SDS011;5281;48.878;9.394;2024-03-22T03:32:18;7.70;;;6.20;;
10467;SDS011;5281;48.878;9.394;2024-03-22T03:34:45;8.17;;;6.47;;
10467;SDS011;5281;48.878;9.394;2024-03-22T03:37:11;7.30;;;6.50;;
10467;SDS011;5281;48.878;9.394;2024-03-22T03:39:37;8.43;;;6.63;;
10467;SDS011;5281;48.878;9.394;2024-03-22T03:42:03;9.00;;;6.40;;
10467;SDS011;5281;48.878;9.394;2024-03-22T03:44:30;9.60;;;6.03;;
10467;SDS011;5281;48.878;9.394;2024-03-22T03:46:56;9.00;;;7.23;;
10467;SDS011;5281;48.878;9.394;2024-03-22T03:49:24;9.37;;;7.20;;
10467;SDS011;5281;48.878;9.394;2024-03-22T03:51:49;9.07;;;7.33;;
10467;SDS011;5281;48.878;9.394;2024-03-22T03:54:16;12.57;;;6.87;;
10467;SDS011;5281;48.878;9.394;2024-03-22T03:56:42;9.47;;;7.47;;
10467;SDS011;5281;48.878;9.394;2024-03-22T03:59:08;12.43;;;7.77;;
10467;SDS011;5281;48.878;9.394;2024-03-22T04:01:34;12.77;;;7.33;;
10467;SDS011;5281;48.878;9.394;2024-03-22T04:04:01;10.20;;;7.80;;
10467;SDS011;5281;48.878;9.394;2024-03-22T04:06:29;9.93;;;7.30;;
10467;SDS011;5281;48.878;9.394;2024-03-22T04:08:55;10.47;;;7.63;;
10467;SDS011;5281;48.878;9.394;2024-03-22T04:11:22;17.07;;;7.90;;
10467;SDS011;5281;48.878;9.394;2024-03-22T04:13:49;10.60;;;8.07;;
10467;SDS011;5281;48.878;9.394;2024-03-22T04:16:14;10.93;;;8.23;;
10467;SDS011;5281;48.878;9.394;2024-03-22T04:18:41;11.20;;;7.93;;
10467;SDS011;5281;48.878;9.394;2024-03-22T04:21:07;10.07;;;7.67;;
10467;SDS011;5281;48.878;9.394;2024-03-22T04:23:35;10.57;;;7.77;;
10467;SDS011;5281;48.878;9.394;2024-03-22T04:26:01;9.53;;;7.17;;
10467;SDS011;5281;48.878;9.394;2024-03-22T04:28:29;8.60;;;6.93;;
10467;SDS011;5281;48.878;9.394;2024-03-22T04:30:55;11.20;;;7.77;;
10467;SDS011;5281;48.878;9.394;2024-03-22T04:33:22;12.00;;;7.00;;
10467;SDS011;5281;48.878;9.394;2024-03-22T04:35:48;10.00;;;7.50;;
10467;SDS011;5281;48.878;9.394;2024-03-22T04:38:15;8.80;;;7.27;;
10467;SDS011;5281;48.878;9.394;2024-03-22T04:40:43;8.67;;;7.10;;
10467;SDS011;5281;48.878;9.394;2024-03-22T04:43:10;10.70;;;8.03;;
10467;SDS011;5281;48.878;9.394;2024-03-22T04:45:35;9.07;;;7.63;;
10467;SDS011;5281;48.878;9.394;2024-03-22T04:48:03;8.80;;;7.00;;
10467;SDS011;5281;48.878;9.394;2024-03-22T04:50:29;8.57;;;7.17;;
10467;SDS011;5281;48.878;9.394;2024-03-22T04:52:56;10.83;;;7.17;;
10467;SDS011;5281;48.878;9.394;2024-03-22T04:55:22;12.37;;;8.53;;
10467;SDS011;5281;48.878;9.394;2024-03-22T04:57:51;11.03;;;7.70;;
10467;SDS011;5281;48.878;9.394;2024-03-22T05:00:17;9.80;;;7.47;;
10467;SDS011;5281;48.878;9.394;2024-03-22T05:02:44;11.03;;;7.30;;
10467;SDS011;5281;48.878;9.394;2024-03-22T05:05:10;8.37;;;6.83;;
10467;SDS011;5281;48.878;9.394;2024-03-22T05:07:37;9.40;;;7.53;;
10467;SDS011;5281;48.878;9.394;2024-03-22T05:10:03;9.23;;;6.80;;
10467;SDS011;5281;48.878;9.394;2024-03-22T05:12:30;8.77;;;6.93;;
10467;SDS011;5281;48.878;9.394;2024-03-22T05:14:57;8.83;;;6.93;;
10467;SDS011;5281;48.878;9.394;2024-03-22T05:17:24;8.47;;;6.93;;
10467;SDS011;5281;48.878;9.394;2024-03-22T05:19:50;10.27;;;6.67;;
10467;SDS011;5281;48.878;9.394;2024-03-22T05:22:17;11.33;;;6.67;;
10467;SDS011;5281;48.878;9.394;2024-03-22T05:24:45;8.13;;;7.17;;
10467;SDS011;5281;48.878;9.394;2024-03-22T05:27:11;9.70;;;7.40;;
10467;SDS011;5281;48.878;9.394;2024-03-22T05:29:37;13.50;;;7.17;;
10467;SDS011;5281;48.878;9.394;2024-03-22T05:32:06;9.70;;;7.17;;
10467;SDS011;5281;48.878;9.394;2024-03-22T05:34:32;9.07;;;7.50;;
10467;SDS011;5281;48.878;9.394;2024-03-22T05:36:58;12.27;;;7.40;;
10467;SDS011;5281;48.878;9.394;2024-03-22T05:39:24;12.23;;;8.00;;
10467;SDS011;5281;48.878;9.394;2024-03-22T05:41:50;9.47;;;7.07;;
10467;SDS011;5281;48.878;9.394;2024-03-22T05:44:16;8.63;;;7.33;;
10467;SDS011;5281;48.878;9.394;2024-03-22T05:46:44;9.67;;;7.03;;
10467;SDS011;5281;48.878;9.394;2024-03-22T05:49:11;9.10;;;7.07;;
10467;SDS011;5281;48.878;9.394;2024-03-22T05:51:37;9.57;;;7.30;;
10467;SDS011;5281;48.878;9.394;2024-03-22T05:54:03;8.17;;;7.23;;
10467;SDS011;5281;48.878;9.394;2024-03-22T05:56:31;9.60;;;7.43;;
10467;SDS011;5281;48.878;9.394;2024-03-22T05:58:57;11.00;;;7.73;;
10467;SDS011;5281;48.878;9.394;2024-03-22T06:01:25;9.77;;;7.53;;
10467;SDS011;5281;48.878;9.394;2024-03-22T06:03:51;10.17;;;7.60;;
10467;SDS011;5281;48.878;9.394;2024-03-22T06:06:19;12.07;;;8.37;;
10467;SDS011;5281;48.878;9.394;2024-03-22T06:08:47;10.37;;;8.23;;
10467;SDS011;5281;48.878;9.394;2024-03-22T06:11:17;9.67;;;7.87;;
10467;SDS011;5281;48.878;9.394;2024-03-22T06:13:43;11.47;;;8.67;;
10467;SDS011;5281;48.878;9.394;2024-03-22T06:16:10;9.67;;;7.70;;
10467;SDS011;5281;48.878;9.394;2024-03-22T06:18:36;13.47;;;8.77;;
10467;SDS011;5281;48.878;9.394;2024-03-22T06:21:02;12.57;;;8.27;;
10467;SDS011;5281;48.878;9.394;2024-03-22T06:23:31;10.67;;;8.00;;
10467;SDS011;5281;48.878;9.394;2024-03-22T06:25:58;10.20;;;7.77;;
10467;SDS011;5281;48.878;9.394;2024-03-22T06:28:24;11.37;;;8.10;;
10467;SDS011;5281;48.878;9.394;2024-03-22T06:30:51;12.50;;;8.00;;
10467;SDS011;5281;48.878;9.394;2024-03-22T06:33:17;15.50;;;8.60;;
10467;SDS011;5281;48.878;9.394;2024-03-22T06:35:44;11.43;;;8.00;;
10467;SDS011;5281;48.878;9.394;2024-03-22T06:38:10;12.83;;;7.80;;
10467;SDS011;5281;48.878;9.394;2024-03-22T06:40:38;9.33;;;7.70;;
10467;SDS011;5281;48.878;9.394;2024-03-22T06:43:04;13.10;;;8.07;;
10467;SDS011;5281;48.878;9.394;2024-03-22T06:45:30;13.93;;;8.17;;
10467;SDS011;5281;48.878;9.394;2024-03-22T06:47:56;13.40;;;7.73;;
10467;SDS011;5281;48.878;9.394;2024-03-22T06:50:23;10.00;;;7.90;;
10467;SDS011;5281;48.878;9.394;2024-03-22T06:52:49;11.80;;;7.93;;
10467;SDS011;5281;48.878;9.394;2024-03-22T06:55:16;7.80;;;6.93;;
10467;SDS011;5281;48.878;9.394;2024-03-22T06:57:43;9.70;;;6.80;;
10467;SDS011;5281;48.878;9.394;2024-03-22T07:00:11;9.43;;;7.73;;
10467;SDS011;5281;48.878;9.394;2024-03-22T07:02:38;11.00;;;6.97;;
10467;SDS011;5281;48.878;9.394;2024-03-22T07:05:05;11.83;;;7.13;;
10467;SDS011;5281;48.878;9.394;2024-03-22T07:07:31;10.47;;;6.67;;
10467;SDS011;5281;48.878;9.394;2024-03-22T07:09:58;11.87;;;6.87;;
10467;SDS011;5281;48.878;9.394;2024-03-22T07:12:24;10.63;;;6.63;;
10467;SDS011;5281;48.878;9.394;2024-03-22T07:14:52;9.30;;;6.97;;
10467;SDS011;5281;48.878;9.394;2024-03-22T07:17:17;7.97;;;6.28;;
10467;SDS011;5281;48.878;9.394;2024-03-22T07:19:48;10.02;;;6.60;;
10467;SDS011;5281;48.878;9.394;2024-03-22T07:22:14;7.60;;;6.80;;
10467;SDS011;5281;48.878;9.394;2024-03-22T07:24:41;9.52;;;6.95;;
10467;SDS011;5281;48.878;9.394;2024-03-22T07:27:06;7.72;;;6.50;;
10467;SDS011;5281;48.878;9.394;2024-03-22T07:29:33;6.80;;;5.95;;
10467;SDS011;5281;48.878;9.394;2024-03-22T07:32:00;7.93;;;5.93;;
10467;SDS011;5281;48.878;9.394;2024-03-22T07:34:28;9.55;;;6.43;;
10467;SDS011;5281;48.878;9.394;2024-03-22T07:36:54;7.15;;;5.70;;
10467;SDS011;5281;48.878;9.394;2024-03-22T07:39:20;9.20;;;6.15;;
10467;SDS011;5281;48.878;9.394;2024-03-22T07:41:46;8.48;;;6.10;;
10467;SDS011;5281;48.878;9.394;2024-03-22T07:44:13;10.00;;;5.68;;
10467;SDS011;5281;48.878;9.394;2024-03-22T07:46:38;8.77;;;6.22;;
10467;SDS011;5281;48.878;9.394;2024-03-22T07:49:07;8.35;;;5.70;;
10467;SDS011;5281;48.878;9.394;2024-03-22T07:51:32;7.18;;;5.57;;
10467;SDS011;5281;48.878;9.394;2024-03-22T07:53:59;16.92;;;5.93;;
10467;SDS011;5281;48.878;9.394;2024-03-22T07:56:25;7.03;;;5.45;;
10467;SDS011;5281;48.878;9.394;2024-03-22T07:58:51;7.43;;;5.80;;
10467;SDS011;5281;48.878;9.394;2024-03-22T08:01:17;10.02;;;6.70;;
10467;SDS011;5281;48.878;9.394;2024-03-22T08:03:44;9.15;;;6.03;;
10467;SDS011;5281;48.878;9.394;2024-03-22T08:06:11;8.45;;;5.93;;
10467;SDS011;5281;48.878;9.394;2024-03-22T08:08:37;8.07;;;5.78;;
10467;SDS011;5281;48.878;9.394;2024-03-22T08:11:03;6.95;;;5.70;;
10467;SDS011;5281;48.878;9.394;2024-03-22T08:13:30;9.32;;;6.03;;
10467;SDS011;5281;48.878;9.394;2024-03-22T08:15:55;10.88;;;5.82;;
10467;SDS011;5281;48.878;9.394;2024-03-22T08:18:22;8.85;;;5.88;;
10467;SDS011;5281;48.878;9.394;2024-03-22T08:20:49;7.35;;;5.88;;
10467;SDS011;5281;48.878;9.394;2024-03-22T08:23:17;8.25;;;6.80;;
10467;SDS011;5281;48.878;9.394;2024-03-22T08:25:45;8.40;;;6.15;;
10467;SDS011;5281;48.878;9.394;2024-03-22T08:28:12;10.20;;;6.45;;
10467;SDS011;5281;48.878;9.394;2024-03-22T08:30:38;10.38;;;6.40;;
10467;SDS011;5281;48.878;9.394;2024-03-22T08:33:05;8.45;;;6.35;;
10467;SDS011;5281;48.878;9.394;2024-03-22T08:35:31;7.60;;;6.30;;
10467;SDS011;5281;48.878;9.394;2024-03-22T08:37:57;9.15;;;5.75;;
10467;SDS011;5281;48.878;9.394;2024-03-22T08:40:25;9.32;;;6.03;;
10467;SDS011;5281;48.878;9.394;2024-03-22T08:42:51;8.77;;;5.97;;
10467;SDS011;5281;48.878;9.394;2024-03-22T08:45:17;8.45;;;5.60;;
10467;SDS011;5281;48.878;9.394;2024-03-22T08:47:44;8.13;;;5.40;;
10467;SDS011;5281;48.878;9.394;2024-03-22T08:50:10;8.93;;;6.13;;
10467;SDS011;5281;48.878;9.394;2024-03-22T08:52:37;6.63;;;5.80;;
10467;SDS011;5281;48.878;9.394;2024-03-22T08:55:03;9.70;;;6.32;;
10467;SDS011;5281;48.878;9.394;2024-03-22T08:57:32;8.48;;;6.20;;
10467;SDS011;5281;48.878;9.394;2024-03-22T08:59:58;10.18;;;5.78;;
10467;SDS011;5281;48.878;9.394;2024-03-22T09:02:25;7.80;;;5.60;;
10467;SDS011;5281;48.878;9.394;2024-03-22T09:04:51;13.40;;;6.03;;
10467;SDS011;5281;48.878;9.394;2024-03-22T09:07:19;6.55;;;5.55;;
10467;SDS011;5281;48.878;9.394;2024-03-22T09:09:45;6.75;;;5.18;;
10467;SDS011;5281;48.878;9.394;2024-03-22T09:12:11;6.55;;;5.40;;
10467;SDS011;5281;48.878;9.394;2024-03-22T09:14:39;7.88;;;6.03;;
10467;SDS011;5281;48.878;9.394;2024-03-22T09:17:05;7.93;;;5.82;;
10467;SDS011;5281;48.878;9.394;2024-03-22T09:19:32;7.15;;;5.78;;
10467;SDS011;5281;48.878;9.394;2024-03-22T09:21:58;9.00;;;5.50;;
10467;SDS011;5281;48.878;9.394;2024-03-22T09:24:24;7.57;;;5.78;;
10467;SDS011;5281;48.878;9.394;2024-03-22T09:26:51;9.27;;;6.53;;
10467;SDS011;5281;48.878;9.394;2024-03-22T09:29:18;10.05;;;6.60;;
10467;SDS011;5281;48.878;9.394;2024-03-22T09:31:46;8.30;;;6.82;;
10467;SDS011;5281;48.878;9.394;2024-03-22T09:34:11;11.43;;;5.95;;
10467;SDS011;5281;48.878;9.394;2024-03-22T09:36:41;11.35;;;6.35;;
10467;SDS011;5281;48.878;9.394;2024-03-22T09:39:07;7.60;;;6.60;;
10467;SDS011;5281;48.878;9.394;2024-03-22T09:41:34;7.45;;;5.80;;
10467;SDS011;5281;48.878;9.394;2024-03-22T09:44:07;9.02;;;6.72;;
10467;SDS011;5281;48.878;9.394;2024-03-22T09:46:39;9.30;;;6.40;;
10467;SDS011;5281;48.878;9.394;2024-03-22T09:49:08;6.22;;;5.50;;
10467;SDS011;5281;48.878;9.394;2024-03-22T09:51:36;9.07;;;5.55;;
10467;SDS011;5281;48.878;9.394;2024-03-22T09:54:02;12.30;;;5.85;;
10467;SDS011;5281;48.878;9.394;2024-03-22T09:56:30;10.70;;;5.85;;
10467;SDS011;5281;48.878;9.394;2024-03-22T09:58:56;8.73;;;5.70;;
10467;SDS011;5281;48.878;9.394;2024-03-22T10:01:23;7.32;;;5.20;;
10467;SDS011;5281;48.878;9.394;2024-03-22T10:03:50;6.38;;;5.70;;
10467;SDS011;5281;48.878;9.394;2024-03-22T10:06:18;6.57;;;5.50;;
10467;SDS011;5281;48.878;9.394;2024-03-22T10:08:44;7.72;;;4.97;;
10467;SDS011;5281;48.878;9.394;2024-03-22T10:11:11;7.45;;;4.97;;
10467;SDS011;5281;48.878;9.394;2024-03-22T10:13:37;4.90;;;4.40;;
10467;SDS011;5281;48.878;9.394;2024-03-22T10:16:04;6.55;;;5.47;;
10467;SDS011;5281;48.878;9.394;2024-03-22T10:18:31;7.28;;;4.90;;
10467;SDS011;5281;48.878;9.394;2024-03-22T10:20:59;8.05;;;5.13;;
10467;SDS011;5281;48.878;9.394;2024-03-22T10:23:27;6.38;;;5.00;;
10467;SDS011;5281;48.878;9.394;2024-03-22T10:25:55;7.43;;;4.70;;
10467;SDS011;5281;48.878;9.394;2024-03-22T10:28:21;5.70;;;4.60;;
10467;SDS011;5281;48.878;9.394;2024-03-22T10:30:48;4.85;;;3.95;;
10467;SDS011;5281;48.878;9.394;2024-03-22T10:33:15;5.82;;;3.90;;
10467;SDS011;5281;48.878;9.394;2024-03-22T10:35:43;6.50;;;3.85;;
10467;SDS011;5281;48.878;9.394;2024-03-22T10:38:10;5.90;;;3.67;;
10467;SDS011;5281;48.878;9.394;2024-03-22T10:40:40;5.10;;;3.70;;
10467;SDS011;5281;48.878;9.394;2024-03-22T10:43:10;5.85;;;4.63;;
10467;SDS011;5281;48.878;9.394;2024-03-22T10:45:36;5.00;;;4.28;;
10467;SDS011;5281;48.878;9.394;2024-03-22T10:48:04;5.88;;;4.25;;
10467;SDS011;5281;48.878;9.394;2024-03-22T10:50:35;7.95;;;4.60;;
10467;SDS011;5281;48.878;9.394;2024-03-22T10:53:06;4.90;;;4.03;;
10467;SDS011;5281;48.878;9.394;2024-03-22T10:55:35;6.22;;;4.40;;
10467;SDS011;5281;48.878;9.394;2024-03-22T10:58:05;6.30;;;4.43;;
10467;SDS011;5281;48.878;9.394;2024-03-22T11:00:32;9.55;;;4.57;;
10467;SDS011;5281;48.878;9.394;2024-03-22T11:02:59;6.20;;;4.53;;
10467;SDS011;5281;48.878;9.394;2024-03-22T11:05:27;5.80;;;4.40;;
10467;SDS011;5281;48.878;9.394;2024-03-22T11:07:59;8.15;;;3.92;;
10467;SDS011;5281;48.878;9.394;2024-03-22T11:10:30;4.97;;;4.07;;
10467;SDS011;5281;48.878;9.394;2024-03-22T11:13:00;6.70;;;4.80;;
10467;SDS011;5281;48.878;9.394;2024-03-22T11:15:29;9.63;;;4.32;;
10467;SDS011;5281;48.878;9.394;2024-03-22T11:17:55;9.13;;;6.03;;
10467;SDS011;5281;48.878;9.394;2024-03-22T11:20:22;5.78;;;3.67;;
10467;SDS011;5281;48.878;9.394;2024-03-22T11:22:47;4.50;;;3.83;;
10467;SDS011;5281;48.878;9.394;2024-03-22T11:25:14;5.80;;;4.07;;
10467;SDS011;5281;48.878;9.394;2024-03-22T11:27:40;4.15;;;3.50;;
10467;SDS011;5281;48.878;9.394;2024-03-22T11:30:07;6.45;;;4.05;;
10467;SDS011;5281;48.878;9.394;2024-03-22T11:32:34;6.22;;;4.07;;
10467;SDS011;5281;48.878;9.394;2024-03-22T11:35:07;6.60;;;4.82;;
10467;SDS011;5281;48.878;9.394;2024-03-22T11:37:34;6.97;;;4.00;;
10467;SDS011;5281;48.878;9.394;2024-03-22T11:40:01;7.22;;;4.20;;
10467;SDS011;5281;48.878;9.394;2024-03-22T11:42:30;6.32;;;4.25;;
10467;SDS011;5281;48.878;9.394;2024-03-22T11:44:57;6.30;;;4.63;;
10467;SDS011;5281;48.878;9.394;2024-03-22T11:47:23;5.40;;;4.20;;
10467;SDS011;5281;48.878;9.394;2024-03-22T11:49:52;4.70;;;4.20;;
10467;SDS011;5281;48.878;9.394;2024-03-22T11:52:18;5.22;;;4.05;;
10467;SDS011;5281;48.878;9.394;2024-03-22T11:54:50;6.82;;;4.70;;
10467;SDS011;5281;48.878;9.394;2024-03-22T11:57:17;6.47;;;4.25;;
10467;SDS011;5281;48.878;9.394;2024-03-22T11:59:44;8.25;;;4.55;;
10467;SDS011;5281;48.878;9.394;2024-03-22T12:02:10;5.93;;;4.45;;
10467;SDS011;5281;48.878;9.394;2024-03-22T12:04:40;5.97;;;3.70;;
10467;SDS011;5281;48.878;9.394;2024-03-22T12:07:10;6.75;;;3.70;;
10467;SDS011;5281;48.878;9.394;2024-03-22T12:09:36;6.88;;;4.15;;
10467;SDS011;5281;48.878;9.394;2024-03-22T12:12:03;5.45;;;4.25;;
10467;SDS011;5281;48.878;9.394;2024-03-22T12:14:30;5.25;;;4.30;;
10467;SDS011;5281;48.878;9.394;2024-03-22T12:16:56;5.05;;;3.67;;
10467;SDS011;5281;48.878;9.394;2024-03-22T12:19:24;9.45;;;4.20;;
10467;SDS011;5281;48.878;9.394;2024-03-22T12:21:49;4.78;;;3.58;;
10467;SDS011;5281;48.878;9.394;2024-03-22T12:24:17;4.78;;;3.92;;
10467;SDS011;5281;48.878;9.394;2024-03-22T12:26:43;7.13;;;3.85;;
10467;SDS011;5281;48.878;9.394;2024-03-22T12:29:10;9.13;;;4.78;;
10467;SDS011;5281;48.878;9.394;2024-03-22T12:31:37;7.00;;;3.72;;
10467;SDS011;5281;48.878;9.394;2024-03-22T12:34:04;6.65;;;4.00;;
10467;SDS011;5281;48.878;9.394;2024-03-22T12:36:30;6.35;;;3.63;;
10467;SDS011;5281;48.878;9.394;2024-03-22T12:38:57;5.13;;;3.63;;
10467;SDS011;5281;48.878;9.394;2024-03-22T12:41:24;5.72;;;4.55;;
10467;SDS011;5281;48.878;9.394;2024-03-22T12:43:50;5.35;;;3.95;;
10467;SDS011;5281;48.878;9.394;2024-03-22T12:46:16;5.82;;;3.90;;
10467;SDS011;5281;48.878;9.394;2024-03-22T12:48:43;5.68;;;3.75;;
10467;SDS011;5281;48.878;9.394;2024-03-22T12:51:09;7.05;;;3.63;;
10467;SDS011;5281;48.878;9.394;2024-03-22T12:53:36;7.53;;;3.58;;
10467;SDS011;5281;48.878;9.394;2024-03-22T12:56:02;9.68;;;4.00;;
10467;SDS011;5281;48.878;9.394;2024-03-22T12:58:30;6.32;;;3.85;;
10467;SDS011;5281;48.878;9.394;2024-03-22T13:00:56;5.10;;;3.63;;
10467;SDS011;5281;48.878;9.394;2024-03-22T13:03:23;6.70;;;3.67;;
10467;SDS011;5281;48.878;9.394;2024-03-22T13:05:50;5.65;;;3.97;;
10467;SDS011;5281;48.878;9.394;2024-03-22T13:08:16;4.97;;;3.15;;
10467;SDS011;5281;48.878;9.394;2024-03-22T13:10:44;7.43;;;3.40;;
10467;SDS011;5281;48.878;9.394;2024-03-22T13:13:10;8.80;;;3.30;;
10467;SDS011;5281;48.878;9.394;2024-03-22T13:15:37;10.05;;;5.40;;
10467;SDS011;5281;48.878;9.394;2024-03-22T13:18:05;5.65;;;3.42;;
10467;SDS011;5281;48.878;9.394;2024-03-22T13:20:30;6.43;;;3.05;;
10467;SDS011;5281;48.878;9.394;2024-03-22T13:22:57;3.92;;;2.90;;
10467;SDS011;5281;48.878;9.394;2024-03-22T13:25:23;7.70;;;3.17;;
10467;SDS011;5281;48.878;9.394;2024-03-22T13:27:50;5.15;;;3.10;;
10467;SDS011;5281;48.878;9.394;2024-03-22T13:30:16;4.65;;;3.22;;
10467;SDS011;5281;48.878;9.394;2024-03-22T13:32:44;5.88;;;3.17;;
10467;SDS011;5281;48.878;9.394;2024-03-22T13:35:10;5.22;;;3.40;;
10467;SDS011;5281;48.878;9.394;2024-03-22T13:37:37;7.40;;;4.10;;
10467;SDS011;5281;48.878;9.394;2024-03-22T13:40:03;5.05;;;4.03;;
10467;SDS011;5281;48.878;9.394;2024-03-22T13:42:30;4.63;;;3.92;;
10467;SDS011;5281;48.878;9.394;2024-03-22T13:44:56;5.50;;;4.05;;
10467;SDS011;5281;48.878;9.394;2024-03-22T13:47:23;5.40;;;3.92;;
10467;SDS011;5281;48.878;9.394;2024-03-22T13:49:51;7.05;;;3.80;;
10467;SDS011;5281;48.878;9.394;2024-03-22T13:52:17;4.45;;;3.28;;
10467;SDS011;5281;48.878;9.394;2024-03-22T13:54:43;5.78;;;3.95;;
10467;SDS011;5281;48.878;9.394;2024-03-22T13:57:10;8.65;;;3.95;;
10467;SDS011;5281;48.878;9.394;2024-03-22T13:59:36;3.90;;;3.40;;
10467;SDS011;5281;48.878;9.394;2024-03-22T14:02:05;5.43;;;3.35;;
10467;SDS011;5281;48.878;9.394;2024-03-22T14:04:31;4.53;;;3.10;;
10467;SDS011;5281;48.878;9.394;2024-03-22T14:06:59;8.00;;;3.90;;
10467;SDS011;5281;48.878;9.394;2024-03-22T14:09:28;3.97;;;3.05;;
10467;SDS011;5281;48.878;9.394;2024-03-22T14:11:54;6.32;;;3.05;;
10467;SDS011;5281;48.878;9.394;2024-03-22T14:14:20;4.97;;;3.17;;
10467;SDS011;5281;48.878;9.394;2024-03-22T14:16:47;4.97;;;3.30;;
10467;SDS011;5281;48.878;9.394;2024-03-22T14:19:12;5.55;;;3.50;;
10467;SDS011;5281;48.878;9.394;2024-03-22T14:21:40;5.38;;;3.15;;
10467;SDS011;5281;48.878;9.394;2024-03-22T14:24:07;4.18;;;2.88;;
10467;SDS011;5281;48.878;9.394;2024-03-22T14:26:34;7.00;;;3.25;;
10467;SDS011;5281;48.878;9.394;2024-03-22T14:29:00;4.18;;;3.20;;
10467;SDS011;5281;48.878;9.394;2024-03-22T14:31:26;4.55;;;2.72;;
10467;SDS011;5281;48.878;9.394;2024-03-22T14:33:52;5.13;;;2.88;;
10467;SDS011;5281;48.878;9.394;2024-03-22T14:36:19;6.07;;;3.97;;
10467;SDS011;5281;48.878;9.394;2024-03-22T14:38:44;5.45;;;2.90;;
10467;SDS011;5281;48.878;9.394;2024-03-22T14:41:12;8.25;;;2.92;;
10467;SDS011;5281;48.878;9.394;2024-03-22T14:43:38;7.60;;;3.17;;
10467;SDS011;5281;48.878;9.394;2024-03-22T14:46:05;4.53;;;2.90;;
10467;SDS011;5281;48.878;9.394;2024-03-22T14:48:30;5.22;;;3.85;;
10467;SDS011;5281;48.878;9.394;2024-03-22T14:50:57;3.28;;;2.58;;
10467;SDS011;5281;48.878;9.394;2024-03-22T14:53:23;3.70;;;2.60;;
10467;SDS011;5281;48.878;9.394;2024-03-22T14:55:53;3.63;;;2.90;;